Time;durP1;ratioP1;P1;durP2;ratioP2;P2;SDS_P1;SDS_P2;PMS_P1;PMS_P2;Temp;Humidity;BMP_temperature;BMP_pressure;BME280_temperature;BME280_humidity;BME280_pressure;Samples;Min_cycle;Max_cycle;Signal;HPM_P1;HPM_P2
2022/08/01 00:00:05;;;;;;;3.53;3.25;;;;;;;18.19;96.05;101722.63;4769341;30;20418;-75
2022/08/01 00:02:35;;;;;;;6.22;3.08;;;;;;;18.20;96.03;101716.03;4769201;30;20594;-75
2022/08/01 00:05:02;;;;;;;3.33;3.10;;;;;;;18.18;96.23;101724.59;4769239;30;20048;-75
2022/08/01 00:07:28;;;;;;;3.00;2.85;;;;;;;18.17;95.97;101720.41;4769119;30;20491;-75
2022/08/01 00:09:55;;;;;;;3.50;3.20;;;;;;;18.16;96.06;101718.19;4769094;30;20057;-75
2022/08/01 00:12:21;;;;;;;3.60;3.30;;;;;;;18.18;96.18;101718.44;4768798;30;20082;-76
2022/08/01 00:14:48;;;;;;;3.00;2.80;;;;;;;18.16;96.48;101727.00;4768688;30;20052;-76
2022/08/01 00:17:14;;;;;;;4.65;3.30;;;;;;;18.16;96.39;101716.22;4769199;30;20075;-76
2022/08/01 00:19:41;;;;;;;3.97;3.05;;;;;;;18.15;96.30;101717.44;4768768;30;20127;-76
2022/08/01 00:22:07;;;;;;;3.60;3.30;;;;;;;18.13;96.66;101719.09;4768867;30;20125;-76
2022/08/01 00:24:34;;;;;;;4.03;2.97;;;;;;;18.12;96.63;101725.72;4768793;30;20054;-75
2022/08/01 00:27:01;;;;;;;3.20;2.95;;;;;;;18.08;96.42;101715.13;4768884;30;20114;-76
2022/08/01 00:29:27;;;;;;;5.78;3.55;;;;;;;18.05;96.62;101724.13;4766867;30;20110;-75
2022/08/01 00:32:14;;;;;;;4.25;3.33;;;;;;;18.06;97.14;101722.19;4767271;30;20559;-75
2022/08/01 00:34:40;;;;;;;9.70;4.20;;;;;;;18.08;97.07;101725.16;4768549;30;20499;-75
2022/08/01 00:37:07;;;;;;;4.30;3.80;;;;;;;18.05;97.16;101724.13;4768872;30;20053;-75
2022/08/01 00:39:33;;;;;;;3.72;3.42;;;;;;;18.06;97.06;101731.00;4768584;30;20415;-76
2022/08/01 00:42:05;;;;;;;4.07;3.78;;;;;;;18.04;97.33;101721.91;4768618;30;20139;-76
2022/08/01 00:44:32;;;;;;;4.75;3.67;;;;;;;18.00;97.60;101722.84;4768337;30;20864;-76
2022/08/01 00:46:59;;;;;;;5.65;3.70;;;;;;;17.98;97.49;101719.91;4768246;30;20052;-76
2022/08/01 00:49:27;;;;;;;4.25;3.95;;;;;;;17.95;97.56;101723.53;4767979;30;20071;-76
2022/08/01 00:51:54;;;;;;;4.40;4.00;;;;;;;17.94;98.13;101713.94;4768359;30;20059;-76
2022/08/01 00:54:23;;;;;;;5.78;4.25;;;;;;;17.93;97.63;101715.16;4766913;30;20056;-76
2022/08/01 00:56:49;;;;;;;5.95;4.03;;;;;;;17.92;98.43;101729.09;4768381;30;20052;-76
2022/08/01 00:59:17;;;;;;;5.18;4.28;;;;;;;17.92;98.38;101726.41;4768263;30;20056;-75
2022/08/01 01:01:46;;;;;;;5.03;4.13;;;;;;;17.91;98.20;101728.34;4766899;30;20114;-76
2022/08/01 01:04:16;;;;;;;5.90;4.57;;;;;;;17.92;98.31;101737.19;4768466;30;20076;-75
2022/08/01 01:07:20;;;;;;;4.65;4.25;;;;;;;17.92;98.12;101731.78;4752159;30;20503;-75
2022/08/01 01:09:58;;;;;;;5.03;4.63;;;;;;;17.90;97.90;101729.56;4752411;30;20064;-76
2022/08/01 01:12:33;;;;;;;4.80;4.18;;;;;;;17.90;98.25;101728.81;4772899;29;20055;-75
2022/08/01 01:15:18;;;;;;;5.38;4.28;;;;;;;17.90;98.55;101731.50;4784719;29;20554;-76
2022/08/01 01:17:57;;;;;;;5.70;4.28;;;;;;;17.89;98.49;101730.03;4785547;29;20055;-76
2022/08/01 01:20:30;;;;;;;5.97;4.80;;;;;;;17.86;98.56;101726.31;4785987;29;20044;-76
2022/08/01 01:23:10;;;;;;;5.28;4.53;;;;;;;17.85;98.63;101724.81;4784253;29;20056;-75
2022/08/01 01:25:36;;;;;;;7.70;4.75;;;;;;;17.83;98.96;101726.50;4786086;29;20047;-76
2022/08/01 01:28:14;;;;;;;5.15;4.65;;;;;;;17.83;98.71;101724.56;4785775;29;20070;-75
2022/08/01 01:30:44;;;;;;;6.82;4.88;;;;;;;17.82;99.09;101725.00;4786047;29;20060;-76
2022/08/01 01:33:13;;;;;;;6.03;5.03;;;;;;;17.81;99.14;101718.88;4785735;29;20063;-76
2022/08/01 01:35:48;;;;;;;6.05;5.25;;;;;;;17.81;99.39;101713.50;4785908;29;20942;-76
2022/08/01 01:38:21;;;;;;;6.15;5.00;;;;;;;17.84;99.38;101717.97;4784841;29;20051;-76
2022/08/01 01:40:50;;;;;;;8.40;5.18;;;;;;;17.84;99.31;101717.97;4786340;29;20109;-75
2022/08/01 01:43:18;;;;;;;7.57;5.10;;;;;;;17.82;99.20;101719.63;4785552;29;20078;-75
2022/08/01 01:45:47;;;;;;;10.55;5.25;;;;;;;17.81;99.71;101723.53;4785733;29;20059;-75
2022/08/01 01:48:18;;;;;;;5.35;4.82;;;;;;;17.81;99.31;101721.56;4784430;29;20052;-76
2022/08/01 01:50:49;;;;;;;10.05;5.82;;;;;;;17.81;99.55;101721.56;4785797;29;20067;-76
2022/08/01 01:53:19;;;;;;;7.20;4.95;;;;;;;17.82;99.69;101722.31;4785846;29;20156;-76
2022/08/01 01:55:48;;;;;;;8.38;5.40;;;;;;;17.81;99.39;101724.28;4786006;29;20051;-76
2022/08/01 01:58:17;;;;;;;9.50;5.82;;;;;;;17.80;99.97;101735.50;4785512;29;20052;-76
2022/08/01 02:00:45;;;;;;;6.97;6.30;;;;;;;17.77;99.55;101725.66;4788839;29;20418;-76
2022/08/01 02:03:14;;;;;;;7.93;5.93;;;;;;;17.77;99.76;101733.75;4788751;29;20488;-76
2022/08/01 02:05:42;;;;;;;8.93;6.03;;;;;;;17.76;100.00;101729.56;4788560;29;20044;-76
2022/08/01 02:08:11;;;;;;;8.02;5.80;;;;;;;17.77;99.77;101726.41;4787327;29;20067;-76
2022/08/01 02:10:39;;;;;;;8.02;5.85;;;;;;;17.78;100.00;101729.84;4788168;29;20056;-76
2022/08/01 02:13:06;;;;;;;6.45;5.80;;;;;;;17.77;99.56;101728.34;4788367;29;20064;-76
2022/08/01 02:15:38;;;;;;;7.18;5.70;;;;;;;17.77;100.00;101725.66;4788625;29;20059;-76
2022/08/01 02:18:24;;;;;;;6.60;5.77;;;;;;;17.77;99.75;101728.34;4788716;29;20143;-76
2022/08/01 02:20:54;;;;;;;7.30;5.60;;;;;;;17.78;99.82;101727.16;4787036;29;20105;-76
2022/08/01 02:23:21;;;;;;;7.30;5.68;;;;;;;17.76;100.00;101730.31;4786974;29;20107;-76
2022/08/01 02:25:53;;;;;;;7.13;6.13;;;;;;;17.75;99.64;101718.06;4788444;29;20055;-76
2022/08/01 02:28:52;;;;;;;6.93;6.18;;;;;;;17.75;99.73;101728.81;4788564;29;20109;-76
2022/08/01 02:31:22;;;;;;;6.60;5.93;;;;;;;17.75;100.00;101728.09;4788548;29;20051;-76
2022/08/01 02:33:58;;;;;;;10.15;5.80;;;;;;;17.75;99.80;101731.50;4788473;29;20063;-76
2022/08/01 02:36:27;;;;;;;8.30;5.75;;;;;;;17.74;100.00;101740.06;4788388;29;20055;-76
2022/08/01 02:39:02;;;;;;;8.20;5.70;;;;;;;17.75;99.99;101725.38;4788600;29;20075;-76
2022/08/01 02:41:31;;;;;;;8.23;5.45;;;;;;;17.77;99.93;101733.75;4787902;29;20534;-76
2022/08/01 02:44:01;;;;;;;6.30;5.53;;;;;;;17.76;100.00;101741.06;4788066;29;20051;-76
2022/08/01 02:46:36;;;;;;;6.78;5.40;;;;;;;17.77;100.00;101747.94;4788034;29;20934;-76
2022/08/01 02:49:05;;;;;;;5.32;4.85;;;;;;;17.76;99.90;101738.38;4788085;29;20525;-76
2022/08/01 02:51:32;;;;;;;7.03;5.32;;;;;;;17.75;100.00;101736.16;4787086;29;20490;-76
2022/08/01 02:54:01;;;;;;;6.60;5.32;;;;;;;17.72;100.00;101748.59;4788002;29;20051;-76
2022/08/01 02:56:34;;;;;;;6.45;5.25;;;;;;;17.72;100.00;101740.53;4787500;29;20493;-77
2022/08/01 02:59:05;;;;;;;6.88;5.32;;;;;;;17.75;99.85;101736.16;4787779;29;20502;-76
2022/08/01 03:01:35;;;;;;;7.20;5.90;;;;;;;17.76;99.89;101732.25;4788258;29;20110;-76
2022/08/01 03:04:05;;;;;;;7.88;5.20;;;;;;;17.77;99.67;101737.19;4787830;29;20493;-77
2022/08/01 03:06:33;;;;;;;6.30;5.28;;;;;;;17.77;100.00;101728.34;4787896;29;20113;-76
2022/08/01 03:09:04;;;;;;;6.13;5.53;;;;;;;17.79;99.86;101736.72;4787248;29;20498;-77
2022/08/01 03:11:31;;;;;;;5.97;5.28;;;;;;;17.77;99.56;101725.66;4787682;29;20052;-76
2022/08/01 03:14:04;;;;;;;6.03;5.40;;;;;;;17.78;99.58;101719.06;4787765;29;20059;-75
2022/08/01 03:16:34;;;;;;;5.78;5.20;;;;;;;17.76;99.70;101716.84;4787797;29;20052;-76
2022/08/01 03:19:03;;;;;;;9.55;5.55;;;;;;;17.73;99.99;101725.84;4787685;29;20059;-77
2022/08/01 03:21:31;;;;;;;6.25;5.57;;;;;;;17.74;99.50;101730.03;4787389;29;20106;-76
2022/08/01 03:24:01;;;;;;;5.78;5.28;;;;;;;17.73;99.49;101727.81;4787232;29;20506;-76
2022/08/01 03:26:30;;;;;;;6.32;5.72;;;;;;;17.71;99.35;101733.66;4787588;29;20126;-76
2022/08/01 03:29:06;;;;;;;5.72;5.25;;;;;;;17.72;99.92;101727.06;4787441;29;20052;-76
2022/08/01 03:31:38;;;;;;;6.28;5.25;;;;;;;17.73;99.70;101738.56;4787710;29;20059;-76
2022/08/01 03:34:05;;;;;;;6.32;5.72;;;;;;;17.71;100.00;101736.34;4787521;29;20067;-76
2022/08/01 03:36:34;;;;;;;6.43;5.80;;;;;;;17.71;100.00;101741.72;4787559;29;20055;-76
2022/08/01 03:39:03;;;;;;;5.88;5.38;;;;;;;17.74;100.00;101737.38;4786903;29;20052;-76
2022/08/01 03:41:35;;;;;;;7.47;5.85;;;;;;;17.73;99.55;101738.56;4787178;29;20521;-76
2022/08/01 03:44:06;;;;;;;5.75;5.22;;;;;;;17.74;99.65;101734.66;4787525;29;20599;-76
2022/08/01 03:46:40;;;;;;;7.33;5.07;;;;;;;17.75;99.85;101738.84;4787379;29;20473;-76
2022/08/01 03:49:14;;;;;;;5.18;4.78;;;;;;;17.76;99.56;101740.34;4786619;29;20059;-76
2022/08/01 03:51:40;;;;;;;5.95;5.35;;;;;;;17.71;99.66;101740.97;4787193;29;20109;-76
2022/08/01 03:54:10;;;;;;;8.68;5.07;;;;;;;17.68;99.37;101739.97;4786512;29;20059;-76
2022/08/01 03:56:38;;;;;;;6.55;5.50;;;;;;;17.66;99.26;101743.13;4786627;29;20058;-76
2022/08/01 03:59:04;;;;;;;5.53;5.00;;;;;;;17.64;99.07;101750.88;4786998;29;20051;-76
2022/08/01 04:01:33;;;;;;;6.00;5.13;;;;;;;17.64;98.97;101742.06;4786563;29;20465;-76
2022/08/01 04:04:00;;;;;;;5.97;5.38;;;;;;;17.62;99.09;101749.88;4786645;29;20056;-76
2022/08/01 04:06:26;;;;;;;5.57;5.07;;;;;;;17.59;98.63;101737.34;4786579;29;20051;-76
2022/08/01 04:08:56;;;;;;;9.10;5.25;;;;;;;17.58;99.19;101739.31;4786558;29;20051;-76
2022/08/01 04:11:27;;;;;;;5.80;5.30;;;;;;;17.56;99.17;101738.28;4786992;29;20130;-75
2022/08/01 04:13:54;;;;;;;6.35;5.75;;;;;;;17.54;98.66;101746.81;4786753;29;20511;-75
2022/08/01 04:16:22;;;;;;;5.30;4.90;;;;;;;17.52;98.84;101743.84;4786936;29;20079;-76
2022/08/01 04:18:48;;;;;;;8.07;5.30;;;;;;;17.51;99.27;101750.44;4787197;29;20052;-75
2022/08/01 04:21:21;;;;;;;5.35;4.85;;;;;;;17.52;99.22;101757.31;4784681;29;20561;-76
2022/08/01 04:23:49;;;;;;;8.85;5.13;;;;;;;17.51;99.78;101763.88;4787128;29;20510;-75
2022/08/01 04:26:21;;;;;;;6.25;5.60;;;;;;;17.52;99.72;101757.31;4770750;29;20508;-77
2022/08/01 04:28:50;;;;;;;8.85;5.40;;;;;;;17.53;99.77;101764.19;4787116;29;20048;-77
2022/08/01 04:31:17;;;;;;;8.40;5.18;;;;;;;17.54;99.45;101765.66;4786673;29;20525;-76
2022/08/01 04:33:49;;;;;;;8.15;5.15;;;;;;;17.56;99.35;101765.19;4786633;29;20059;-75
2022/08/01 04:36:19;;;;;;;5.70;5.00;;;;;;;17.55;99.74;101772.53;4786631;29;20086;-77
2022/08/01 04:38:50;;;;;;;5.82;5.07;;;;;;;17.55;99.38;101769.09;4787087;29;20047;-79
2022/08/01 04:41:18;;;;;;;5.78;5.28;;;;;;;17.54;99.79;101773.00;4787134;29;20542;-78
2022/08/01 04:43:45;;;;;;;5.78;4.78;;;;;;;17.54;99.55;101765.66;4786519;29;20048;-75
2022/08/01 04:46:12;;;;;;;7.32;4.70;;;;;;;17.55;99.59;101771.78;4786546;29;20063;-75
2022/08/01 04:48:40;;;;;;;5.88;3.47;;;;;;;17.55;99.02;101777.19;4786183;29;20498;-76
2022/08/01 04:51:15;;;;;;;3.70;3.40;;;;;;;17.56;98.41;101779.41;4785869;29;20674;-77
2022/08/01 04:53:43;;;;;;;3.55;3.25;;;;;;;17.56;97.98;101778.66;4786281;29;20056;-76
2022/08/01 04:56:12;;;;;;;4.43;3.05;;;;;;;17.55;97.69;101779.88;4786635;29;20063;-76
2022/08/01 04:58:42;;;;;;;3.38;2.63;;;;;;;17.56;97.36;101784.03;4786327;29;20048;-75
2022/08/01 05:01:09;;;;;;;2.38;2.28;;;;;;;17.54;96.69;101792.59;4786200;29;20479;-75
2022/08/01 05:03:37;;;;;;;2.38;2.17;;;;;;;17.54;96.42;101808.72;4786063;29;20525;-74
2022/08/01 05:06:05;;;;;;;2.15;1.95;;;;;;;17.50;95.54;101802.03;4785985;29;20139;-76
2022/08/01 05:08:31;;;;;;;2.00;1.90;;;;;;;17.50;95.72;101797.41;4786115;29;20056;-75
2022/08/01 05:10:58;;;;;;;1.65;1.65;;;;;;;17.51;95.61;101800.84;4786241;29;20055;-76
2022/08/01 05:13:25;;;;;;;2.53;1.80;;;;;;;17.50;95.53;101800.09;4786215;29;20056;-76
2022/08/01 05:15:52;;;;;;;2.25;2.10;;;;;;;17.47;95.68;101801.00;4785789;29;20055;-76
2022/08/01 05:18:18;;;;;;;1.83;1.73;;;;;;;17.45;96.23;101797.28;4786550;29;20055;-77
2022/08/01 05:20:53;;;;;;;2.00;1.80;;;;;;;17.46;96.19;101799.53;4785845;29;20066;-76
2022/08/01 05:23:20;;;;;;;4.22;1.92;;;;;;;17.47;96.86;101800.28;4786174;29;20489;-77
2022/08/01 05:26:07;;;;;;;1.80;1.70;;;;;;;17.51;96.44;101801.59;4785761;29;20105;-77
2022/08/01 05:28:35;;;;;;;1.80;1.70;;;;;;;17.52;96.69;101807.72;4785754;29;20117;-76
2022/08/01 05:31:02;;;;;;;1.63;1.63;;;;;;;17.53;96.85;101806.50;4785751;29;20055;-77
2022/08/01 05:33:28;;;;;;;2.20;2.00;;;;;;;17.53;96.68;101809.94;4787680;29;20051;-77
2022/08/01 05:35:55;;;;;;;2.20;1.90;;;;;;;17.53;97.02;101803.81;4788501;29;20047;-74
2022/08/01 05:38:21;;;;;;;1.67;1.60;;;;;;;17.53;97.09;101809.94;4789099;29;20056;-74
2022/08/01 05:40:48;;;;;;;1.95;1.73;;;;;;;17.52;96.65;101810.41;4787711;29;20058;-74
2022/08/01 05:43:14;;;;;;;1.58;1.55;;;;;;;17.50;96.96;101812.81;4789421;29;20518;-76
2022/08/01 05:45:41;;;;;;;3.95;1.50;;;;;;;17.49;97.50;101817.44;4789059;29;20085;-75
2022/08/01 05:48:08;;;;;;;1.90;1.42;;;;;;;17.48;96.92;101815.97;4788380;29;20093;-75
2022/08/01 05:50:34;;;;;;;1.63;1.52;;;;;;;17.45;96.76;101821.53;4788952;29;20051;-76
2022/08/01 05:53:01;;;;;;;2.63;1.60;;;;;;;17.44;96.48;101820.03;4788962;29;20084;-77
2022/08/01 05:55:27;;;;;;;1.48;1.38;;;;;;;17.46;97.34;101821.06;4788752;29;20130;-76
2022/08/01 05:57:54;;;;;;;2.17;1.52;;;;;;;17.47;96.97;101814.47;4789050;29;20080;-76
2022/08/01 06:00:21;;;;;;;2.17;1.60;;;;;;;17.54;96.48;101814.13;4788788;29;20056;-76
2022/08/01 06:02:47;;;;;;;1.60;1.50;;;;;;;17.60;96.72;101816.88;4788832;29;20109;-75
2022/08/01 06:05:14;;;;;;;2.55;1.70;;;;;;;17.59;96.40;101820.81;4788813;29;20514;-74
2022/08/01 06:07:40;;;;;;;1.80;1.70;;;;;;;17.61;96.43;101826.44;4788796;29;20048;-74
2022/08/01 06:10:08;;;;;;;1.55;1.45;;;;;;;17.62;96.29;101831.38;4787122;29;20543;-73
2022/08/01 06:12:35;;;;;;;1.80;1.70;;;;;;;17.64;96.90;101830.91;4788607;29;20056;-73
2022/08/01 06:15:03;;;;;;;4.95;1.50;;;;;;;17.69;97.41;101830.31;4787047;29;20114;-74
2022/08/01 06:17:29;;;;;;;1.77;1.67;;;;;;;17.73;96.97;101835.50;4788032;29;20058;-73
2022/08/01 06:19:56;;;;;;;2.08;1.77;;;;;;;17.79;97.25;101823.63;4788521;29;20059;-73
2022/08/01 06:22:22;;;;;;;3.08;1.70;;;;;;;17.85;96.68;101829.13;4788677;29;20056;-73
2022/08/01 06:24:49;;;;;;;2.75;1.83;;;;;;;17.91;96.68;101832.66;4788362;29;20571;-73
2022/08/01 06:27:16;;;;;;;1.48;1.45;;;;;;;17.94;96.30;101831.75;4788512;29;20060;-74
2022/08/01 06:29:48;;;;;;;;;;;;;;;17.92;96.30;101834.91;4789293;29;20476;-73
2022/08/01 06:32:22;;;;;;;1.42;1.33;;;;;;;17.91;96.37;101832.66;4788093;29;19934;-73
2022/08/01 06:34:52;;;;;;;1.75;1.65;;;;;;;17.89;96.40;101837.78;4788483;29;20051;-73
2022/08/01 06:37:19;;;;;;;4.03;1.90;;;;;;;17.85;96.65;101831.81;4788568;29;20044;-73
2022/08/01 06:39:45;;;;;;;1.73;1.63;;;;;;;17.78;96.30;101832.91;4788566;29;20051;-74
2022/08/01 06:42:12;;;;;;;2.35;2.15;;;;;;;17.71;96.69;101835.97;4788107;29;20051;-73
2022/08/01 06:44:39;;;;;;;2.70;2.17;;;;;;;17.64;97.02;101836.31;4787543;29;20052;-73
2022/08/01 06:47:05;;;;;;;2.15;1.67;;;;;;;17.57;97.61;101842.81;4787818;29;20529;-74
2022/08/01 06:49:32;;;;;;;1.70;1.60;;;;;;;17.56;98.02;101841.31;4786869;29;20056;-74
2022/08/01 06:51:58;;;;;;;3.25;1.70;;;;;;;17.60;97.68;101843.81;4787264;29;20127;-74
2022/08/01 06:54:25;;;;;;;1.83;1.73;;;;;;;17.62;98.36;101849.47;4786881;29;20055;-74
2022/08/01 06:56:51;;;;;;;6.03;1.80;;;;;;;17.69;98.31;101853.78;4786865;29;20051;-74
2022/08/01 06:59:18;;;;;;;1.90;1.80;;;;;;;17.71;98.20;101856.78;4787251;29;20156;-74
2022/08/01 07:01:44;;;;;;;2.00;1.90;;;;;;;17.75;97.76;101858.09;4786403;29;20047;-75
2022/08/01 07:04:11;;;;;;;5.65;1.80;;;;;;;17.73;98.24;101857.06;4786618;29;20054;-74
2022/08/01 07:06:37;;;;;;;2.20;1.80;;;;;;;17.72;97.80;101847.50;4786950;29;20052;-74
2022/08/01 07:09:04;;;;;;;1.75;1.65;;;;;;;17.69;97.85;101851.84;4786769;29;20537;-74
2022/08/01 07:11:39;;;;;;;1.88;1.80;;;;;;;17.68;98.45;101855.75;4786846;29;20518;-74
2022/08/01 07:14:06;;;;;;;2.50;2.30;;;;;;;17.70;98.25;101864.09;4785266;29;20514;-74
2022/08/01 07:16:32;;;;;;;2.42;2.33;;;;;;;17.75;98.04;101858.09;4786145;29;20103;-74
2022/08/01 07:18:58;;;;;;;2.65;2.45;;;;;;;17.79;97.30;101857.91;4786397;29;20086;-74
2022/08/01 07:21:25;;;;;;;2.30;2.00;;;;;;;17.84;97.50;101859.97;4786303;29;20056;-74
2022/08/01 07:24:12;;;;;;;3.05;2.40;;;;;;;17.90;97.48;101860.81;4786744;29;20073;-73
2022/08/01 07:26:42;;;;;;;2.53;2.28;;;;;;;17.93;96.93;101867.97;4786502;29;20056;-74
2022/08/01 07:29:23;;;;;;;2.10;2.00;;;;;;;17.94;97.09;101864.81;4786596;29;20484;-74
2022/08/01 07:31:52;;;;;;;2.03;1.92;;;;;;;17.98;96.79;101870.00;4786205;29;20084;-74
2022/08/01 07:34:19;;;;;;;2.10;2.00;;;;;;;17.98;96.94;101875.41;4786470;29;20052;-74
2022/08/01 07:36:46;;;;;;;3.10;2.90;;;;;;;17.97;97.28;101876.59;4786514;29;20051;-73
2022/08/01 07:39:12;;;;;;;2.97;2.70;;;;;;;17.97;97.11;101880.03;4786168;29;20093;-73
2022/08/01 07:41:38;;;;;;;2.60;2.40;;;;;;;18.00;97.12;101878.34;4785970;29;20088;-73
2022/08/01 07:44:25;;;;;;;5.60;2.50;;;;;;;17.99;97.26;101884.97;4785596;29;20051;-74
2022/08/01 07:46:55;;;;;;;5.05;3.03;;;;;;;17.92;96.85;101883.38;4785976;29;20506;-73
2022/08/01 07:49:21;;;;;;;5.30;3.00;;;;;;;17.89;97.16;101888.94;4750105;29;1098117;-74
2022/08/01 07:51:48;;;;;;;4.88;3.08;;;;;;;17.89;97.17;101897.78;4787479;29;20090;-75
2022/08/01 07:54:31;;;;;;;3.67;2.97;;;;;;;17.92;97.27;101896.84;4787079;29;20058;-75
2022/08/01 07:56:59;;;;;;;6.40;3.13;;;;;;;17.90;96.02;101893.88;4786029;29;20469;-74
2022/08/01 07:59:26;;;;;;;6.78;3.58;;;;;;;17.89;96.28;101902.41;4778574;29;20052;-74
2022/08/01 08:01:53;;;;;;;6.35;3.17;;;;;;;17.91;96.02;101905.41;4768560;30;20122;-75
2022/08/01 08:04:19;;;;;;;4.63;2.70;;;;;;;17.94;95.97;101905.22;4769307;30;20045;-75
2022/08/01 08:06:47;;;;;;;15.00;3.08;;;;;;;17.92;95.22;101904.19;4768857;29;20046;-74
2022/08/01 08:09:15;;;;;;;15.10;3.97;;;;;;;17.97;94.52;101911.63;4768660;30;20124;-75
2022/08/01 08:11:43;;;;;;;16.60;3.25;;;;;;;17.98;93.91;101911.16;4768971;30;20059;-74
2022/08/01 08:14:13;;;;;;;;;;;;;;;18.04;93.89;101910.50;4768966;30;20044;-75
2022/08/01 08:16:40;;;;;;;11.98;3.17;;;;;;;18.03;93.50;101915.13;4768919;30;20263;-74
2022/08/01 08:19:06;;;;;;;9.55;3.10;;;;;;;18.11;93.05;101908.19;4768668;30;20063;-75
2022/08/01 08:21:33;;;;;;;10.52;3.15;;;;;;;18.17;92.38;101917.13;4768709;30;20048;-74
2022/08/01 08:26:45;;;;;;;8.35;2.80;;;;;;;18.29;91.51;101926.16;4768490;30;20059;-74
2022/08/01 08:29:17;;;;;;;10.13;2.70;;;;;;;18.40;91.39;101931.69;4768679;30;20099;-75
2022/08/01 08:31:44;;;;;;;13.93;4.07;;;;;;;18.50;91.71;101932.34;4768354;30;20518;-74
2022/08/01 08:34:18;;;;;;;8.07;3.15;;;;;;;18.63;91.17;101924.75;4768838;29;20558;-75
2022/08/01 08:36:45;;;;;;;9.50;2.92;;;;;;;18.66;89.11;101929.22;4768330;30;20917;-75
2022/08/01 08:39:13;;;;;;;10.70;3.50;;;;;;;18.68;89.36;101932.19;4768187;30;20129;-74
2022/08/01 08:41:40;;;;;;;14.18;3.42;;;;;;;18.67;88.60;101936.09;4768079;30;20093;-75
2022/08/01 08:44:08;;;;;;;13.38;3.28;;;;;;;18.66;88.72;101940.00;4767789;30;20059;-74
2022/08/01 08:46:42;;;;;;;9.50;3.30;;;;;;;18.72;88.64;101943.53;4768118;30;20052;-74
2022/08/01 08:49:08;;;;;;;12.38;3.28;;;;;;;18.68;87.46;101940.28;4768109;30;20071;-74
2022/08/01 08:51:39;;;;;;;14.52;3.35;;;;;;;18.68;87.17;101937.59;4768338;30;20048;-74
2022/08/01 08:54:06;;;;;;;10.65;3.10;;;;;;;18.68;87.12;101937.59;4768061;30;20060;-75
2022/08/01 08:56:34;;;;;;;8.88;3.00;;;;;;;18.77;87.46;101942.88;4768185;30;20052;-74
2022/08/01 08:59:02;;;;;;;5.65;2.70;;;;;;;18.90;87.50;101946.00;4767781;30;20056;-74
2022/08/01 09:01:34;;;;;;;10.73;3.30;;;;;;;19.04;86.53;101943.75;4768119;30;20498;-76
2022/08/01 09:04:03;;;;;;;9.50;3.08;;;;;;;19.19;86.40;101937.09;4767114;30;20059;-75
2022/08/01 09:06:31;;;;;;;8.95;2.72;;;;;;;19.29;85.35;101946.56;4768285;30;20052;-75
2022/08/01 09:08:58;;;;;;;7.28;2.55;;;;;;;19.32;82.10;101947.56;4767691;30;20518;-75
2022/08/01 09:11:25;;;;;;;9.35;2.50;;;;;;;19.31;82.51;101952.22;4767322;30;20052;-76
2022/08/01 09:14:08;;;;;;;10.80;2.70;;;;;;;19.37;81.79;101955.00;4767850;30;20064;-74
2022/08/01 09:16:37;;;;;;;8.20;2.60;;;;;;;19.45;82.18;101964.19;4767883;30;20063;-76
2022/08/01 09:19:14;;;;;;;6.93;2.65;;;;;;;19.60;82.82;101961.44;4767853;30;20502;-74
2022/08/01 09:22:04;;;;;;;7.50;2.67;;;;;;;19.65;80.62;101968.88;4768162;30;20117;-75
2022/08/01 09:24:33;;;;;;;6.78;2.50;;;;;;;19.76;79.28;101963.59;4768148;30;20060;-75
2022/08/01 09:27:01;;;;;;;7.43;2.67;;;;;;;19.84;77.73;101970.09;4767436;30;20110;-75
2022/08/01 09:29:31;;;;;;;5.40;1.75;;;;;;;19.90;75.91;101960.09;4767664;30;20519;-76
2022/08/01 09:32:05;;;;;;;3.63;1.90;;;;;;;20.00;74.49;101966.06;4766429;30;20163;-75
2022/08/01 09:34:32;;;;;;;5.28;2.17;;;;;;;20.10;74.02;101978.22;4767712;30;20053;-76
2022/08/01 09:37:02;;;;;;;8.18;2.33;;;;;;;20.23;73.00;101975.91;4767724;30;20052;-74
2022/08/01 09:39:37;;;;;;;5.88;2.33;;;;;;;20.33;73.26;101970.34;4767714;30;20214;-75
2022/08/01 09:42:26;;;;;;;7.63;2.30;;;;;;;20.44;74.50;101975.84;4767433;30;20048;-75
2022/08/01 09:44:55;;;;;;;6.93;2.30;;;;;;;20.40;73.48;101980.75;4767881;30;20048;-74
2022/08/01 09:47:21;;;;;;;6.63;2.50;;;;;;;20.39;72.34;101980.03;4767542;30;20059;-75
2022/08/01 09:49:57;;;;;;;4.15;2.22;;;;;;;20.42;71.44;101984.44;4767549;30;20048;-76
2022/08/01 09:52:26;;;;;;;8.68;2.20;;;;;;;20.49;71.83;101994.09;4767744;30;20063;-75
2022/08/01 09:55:00;;;;;;;7.57;2.47;;;;;;;20.71;72.12;101991.59;4766721;30;20053;-75
2022/08/01 09:57:27;;;;;;;9.20;2.50;;;;;;;20.88;71.22;101986.28;4767678;30;20056;-76
2022/08/01 09:59:56;;;;;;;7.30;2.05;;;;;;;21.08;70.48;101988.16;4767281;30;20056;-76
2022/08/01 10:02:34;;;;;;;6.90;1.95;;;;;;;21.33;69.71;101983.91;4767570;30;20128;-76
2022/08/01 10:05:03;;;;;;;7.20;2.63;;;;;;;21.46;66.79;101984.97;4766074;30;20055;-76
2022/08/01 10:07:35;;;;;;;5.35;1.88;;;;;;;21.50;66.01;101982.03;4767540;30;20056;-75
2022/08/01 10:10:12;;;;;;;4.78;1.55;;;;;;;21.60;65.55;101984.03;4767169;30;20051;-77
2022/08/01 10:12:41;;;;;;;7.77;2.03;;;;;;;21.84;64.90;101991.03;4767670;30;20494;-76
2022/08/01 10:15:14;;;;;;;5.68;1.58;;;;;;;22.04;61.80;101988.13;4767460;30;20063;-75
2022/08/01 10:17:53;;;;;;;2.80;1.70;;;;;;;22.36;59.56;101983.28;4767253;30;20111;-74
2022/08/01 10:20:26;;;;;;;4.20;1.67;;;;;;;22.57;59.26;101984.50;4769281;30;20057;-72
2022/08/01 10:22:59;;;;;;;5.57;1.88;;;;;;;22.70;58.39;101992.16;4770374;29;20052;-73
2022/08/01 10:25:28;;;;;;;;;;;;;;;23.01;62.26;101993.13;4770503;30;20110;-72
2022/08/01 10:28:16;;;;;;;6.63;1.52;;;;;;;23.48;57.72;102002.16;4770897;30;19930;-73
2022/08/01 10:30:50;;;;;;;4.82;1.65;;;;;;;23.46;55.19;101991.78;4770505;29;20056;-73
2022/08/01 10:33:21;;;;;;;4.43;1.50;;;;;;;23.29;53.80;101994.53;4770599;29;20063;-72
2022/08/01 10:36:08;;;;;;;3.83;2.03;;;;;;;23.29;54.47;101988.38;4770133;30;20121;-72
2022/08/01 10:38:35;;;;;;;6.65;1.85;;;;;;;23.54;55.84;101994.75;4769674;30;20056;-71
2022/08/01 10:41:04;;;;;;;8.73;2.00;;;;;;;23.78;54.20;101994.13;4769588;30;20592;-71
2022/08/01 10:43:32;;;;;;;8.55;2.25;;;;;;;23.83;52.90;101991.38;4769912;30;20570;-73
2022/08/01 10:46:03;;;;;;;3.17;1.65;;;;;;;23.90;53.12;101987.41;4769293;30;20059;-75
2022/08/01 10:48:31;;;;;;;5.13;1.70;;;;;;;23.85;53.54;101988.91;4769557;30;20556;-74
2022/08/01 10:51:02;;;;;;;5.45;1.52;;;;;;;23.91;54.06;101989.63;4769980;30;20510;-74
2022/08/01 10:53:29;;;;;;;8.02;2.08;;;;;;;24.13;52.75;101993.44;4768399;30;20056;-74
2022/08/01 10:56:09;;;;;;;4.93;1.95;;;;;;;24.32;51.60;101980.72;4770009;30;20060;-77
2022/08/01 10:58:41;;;;;;;8.48;1.83;;;;;;;24.33;52.43;101989.63;4770178;30;20056;-75
2022/08/01 11:01:23;;;;;;;4.10;1.88;;;;;;;24.34;53.63;101989.13;4769926;30;20050;-76
2022/08/01 11:04:00;;;;;;;8.23;1.70;;;;;;;24.43;52.01;101985.31;4769583;30;20088;-74
2022/08/01 11:06:33;;;;;;;8.68;1.98;;;;;;;24.34;53.36;101996.56;4769646;30;20107;-75
2022/08/01 11:09:20;;;;;;;7.50;2.15;;;;;;;23.94;52.66;101993.31;4769468;30;20084;-73
2022/08/01 11:12:11;;;;;;;17.85;15.80;;;;;;;23.70;55.34;101998.63;4770056;30;20517;-73
2022/08/01 11:14:58;;;;;;;7.95;3.80;;;;;;;23.63;54.35;101989.00;4769847;30;20574;-73
2022/08/01 11:17:47;;;;;;;7.22;2.30;;;;;;;23.64;56.45;101990.47;4769645;30;20056;-73
2022/08/01 11:20:20;;;;;;;6.20;2.42;;;;;;;23.69;54.74;101987.00;4769835;30;20056;-73
2022/08/01 11:25:37;;;;;;;9.82;2.20;;;;;;;23.87;55.77;101996.56;4769802;30;20052;-74
2022/08/01 11:28:25;;;;;;;11.82;2.58;;;;;;;23.83;54.00;102001.53;4769817;30;20128;-73
2022/08/01 11:31:10;;;;;;;7.68;2.08;;;;;;;23.66;54.88;102009.75;4768990;29;20048;-73
2022/08/01 11:33:39;;;;;;;5.35;2.13;;;;;;;23.50;53.75;102013.25;4769634;30;20188;-73
2022/08/01 11:36:12;;;;;;;7.43;2.20;;;;;;;23.31;55.14;102013.06;4769026;30;20208;-73
2022/08/01 11:38:42;;;;;;;6.40;2.08;;;;;;;23.44;56.16;102010.56;4769496;30;20166;-73
2022/08/01 11:41:30;;;;;;;12.25;3.05;;;;;;;23.71;55.67;102014.44;4769455;30;20052;-73
2022/08/01 11:44:25;;;;;;;8.70;2.42;;;;;;;23.76;54.71;102010.94;4769411;30;20106;-75